Kake Airport Kake US
ICAO: PAFE
IATA:
Category: Medium
Scheduled Services:

Elevation: 172 ft
TransAlt. 18000 ft.

Airport Communications:
AWOS 3:135.25
ANCHORAGE CNTR:118
CTAF:122.9
SITKA RDO:121.3

PAFE Zoom In..

If you have problems with the map follow the link
https://www.worldairports.se/pages/airport.php?
ICAO=PAFE

Runways:

(A) RW 11 length 4000 ft width 100 ft
---- / hdg 109

(B) RW 29 length 4000 ft width 100 ft
---- / hdg 289

Location; PAFE
Day. 10 / Time. 01.59 Zulu
* Altimeter: 29.83
* Temperature: -00° c. -32°f.
* Wind from: 020° Speed 12 kn with Gusts up to 19 kn.
Dewpoint: -06° c.
Visibility: 10 Statute Miles.
Clouds: Overcast 3400 ft.

PAFE 100159Z 02012G19KT 10SM OVC034 M00/M06 A2983


Wind From 020°
Speed 12 kn.

 
 
jpsmedia worldairports.se 2020   terms of use